createdAt,value
2016-12-28T00:00:13.500Z,99.27
2016-12-28T00:01:13.450Z,99.93
2016-12-28T00:02:13.106Z,99.84
2016-12-28T00:03:13.361Z,99.93
2016-12-28T00:04:13.016Z,99.93
2016-12-28T00:05:13.276Z,99.93
2016-12-28T00:06:13.238Z,99.93
2016-12-28T00:07:13.189Z,99.84
2016-12-28T00:08:12.847Z,99.65
2016-12-28T00:09:13.103Z,99.46
2016-12-28T00:10:13.059Z,99.74
2016-12-28T00:11:13.015Z,99.84
2016-12-28T00:12:12.970Z,99.74
2016-12-28T00:13:12.927Z,99.84
2016-12-28T00:14:12.579Z,99.99
2016-12-28T00:15:12.535Z,99.99
2016-12-28T00:16:12.795Z,99.74
2016-12-28T00:17:12.449Z,99.65
2016-12-28T00:18:12.711Z,99.65
2016-12-28T00:19:12.666Z,99.55
2016-12-28T00:20:12.621Z,99.84
2016-12-28T00:21:12.590Z,99.65
2016-12-28T00:22:12.535Z,99.55
2016-12-28T00:23:12.499Z,99.93
2016-12-28T00:24:12.148Z,99.93
2016-12-28T00:25:12.103Z,99.46
2016-12-28T00:26:12.055Z,99.46
2016-12-28T00:27:12.314Z,99.74
2016-12-28T00:28:11.971Z,99.74
2016-12-28T00:29:12.227Z,99.93
2016-12-28T00:30:12.184Z,99.99
2016-12-28T00:31:12.141Z,99.74
2016-12-28T00:32:11.796Z,99.74
2016-12-28T00:33:12.052Z,99.93
2016-12-28T00:34:12.013Z,99.99
2016-12-28T00:35:11.972Z,99.99
2016-12-28T00:36:11.618Z,99.74
2016-12-28T00:37:11.880Z,99.93
2016-12-28T00:38:11.834Z,99.93
2016-12-28T00:39:11.790Z,99.99
2016-12-28T00:40:11.747Z,99.93
2016-12-28T00:41:11.704Z,99.99
2016-12-28T00:42:11.355Z,99.93
2016-12-28T00:43:11.623Z,99.74
2016-12-28T00:44:11.273Z,99.74
2016-12-28T00:45:11.229Z,99.93
2016-12-28T00:46:11.487Z,99.93
2016-12-28T00:47:11.443Z,99.93
2016-12-28T00:48:11.398Z,99.93
2016-12-28T00:49:11.054Z,99.74
2016-12-28T00:50:11.308Z,99.99
2016-12-28T00:51:11.268Z,99.99
2016-12-28T00:52:11.222Z,99.99
2016-12-28T00:53:11.186Z,99.99
2016-12-28T00:54:11.134Z,99.99
2016-12-28T00:55:11.093Z,99.99
2016-12-28T00:56:11.046Z,99.99
2016-12-28T00:57:10.702Z,99.99
2016-12-28T00:58:10.656Z,99.93
2016-12-28T00:59:10.925Z,99.99
2016-12-28T01:00:10.871Z,99.99
2016-12-28T01:01:10.526Z,99.99
2016-12-28T01:02:10.481Z,99.99
2016-12-28T01:03:10.438Z,99.99
2016-12-28T01:04:10.702Z,99.99
2016-12-28T01:05:10.349Z,99.99
2016-12-28T01:06:10.307Z,99.99
2016-12-28T01:07:10.568Z,99.99
2016-12-28T01:08:10.522Z,99.99
2016-12-28T01:09:10.479Z,99.74
2016-12-28T01:10:10.433Z,99.99
2016-12-28T01:11:10.389Z,99.99
2016-12-28T01:12:10.347Z,99.93
2016-12-28T01:13:09.999Z,99.99
2016-12-28T01:14:10.258Z,99.93
2016-12-28T01:15:10.215Z,99.93
2016-12-28T01:16:09.869Z,99.99
2016-12-28T01:17:09.825Z,99.99
2016-12-28T01:18:10.085Z,99.99
2016-12-28T01:19:10.039Z,99.99
2016-12-28T01:20:09.996Z,99.99
2016-12-28T01:21:09.652Z,99.99
2016-12-28T01:22:09.913Z,99.99
2016-12-28T01:23:09.563Z,99.99
2016-12-28T01:24:09.517Z,99.99
2016-12-28T01:25:09.775Z,99.99
2016-12-28T01:26:09.429Z,99.99
2016-12-28T01:27:09.689Z,99.99
2016-12-28T01:28:09.647Z,99.99
2016-12-28T01:29:09.603Z,99.99
2016-12-28T01:30:09.588Z,99.99
2016-12-28T01:31:09.514Z,99.99
2016-12-28T01:32:09.468Z,99.99
2016-12-28T01:33:09.423Z,99.99
2016-12-28T01:34:09.380Z,99.99
2016-12-28T01:35:09.036Z,99.99
2016-12-28T01:36:09.293Z,99.99
2016-12-28T01:37:08.951Z,99.99
2016-12-28T01:38:09.203Z,99.99
2016-12-28T01:39:09.162Z,99.99
2016-12-28T01:40:09.118Z,99.99
2016-12-28T01:41:09.076Z,99.99
2016-12-28T01:42:09.032Z,99.99
2016-12-28T01:43:08.987Z,99.99
2016-12-28T01:44:08.944Z,99.99
2016-12-28T01:45:08.897Z,99.99
2016-12-28T01:46:08.853Z,99.99
2016-12-28T01:47:08.815Z,99.99
2016-12-28T01:48:08.464Z,99.99
2016-12-28T01:49:08.721Z,99.99
2016-12-28T01:50:08.377Z,99.99
2016-12-28T01:51:08.637Z,99.99
2016-12-28T01:52:08.288Z,99.99
2016-12-28T01:53:08.250Z,99.99
2016-12-28T01:54:08.503Z,99.99
2016-12-28T01:55:08.461Z,99.99
2016-12-28T01:56:08.418Z,99.99
2016-12-28T01:57:08.375Z,99.99
2016-12-28T01:58:08.329Z,99.99
2016-12-28T01:59:08.284Z,99.99
2016-12-28T02:00:08.238Z,99.99
2016-12-28T02:01:08.196Z,99.99
2016-12-28T02:02:08.154Z,99.99
2016-12-28T02:03:08.109Z,99.99
2016-12-28T02:04:07.764Z,99.99
2016-12-28T02:05:07.718Z,99.99
2016-12-28T02:06:07.976Z,99.99
2016-12-28T02:07:07.932Z,99.99
2016-12-28T02:08:07.890Z,99.99
2016-12-28T02:09:07.846Z,99.99
2016-12-28T02:10:07.804Z,99.99
2016-12-28T02:11:07.758Z,99.99
2016-12-28T02:12:07.418Z,99.99
2016-12-28T02:13:07.667Z,99.99
2016-12-28T02:14:07.624Z,99.99
2016-12-28T02:15:07.277Z,99.99
2016-12-28T02:16:07.234Z,99.99
2016-12-28T02:17:07.491Z,99.99
2016-12-28T02:18:07.446Z,99.99
2016-12-28T02:19:07.100Z,99.99
2016-12-28T02:20:07.359Z,99.99
2016-12-28T02:21:07.015Z,99.99
2016-12-28T02:22:07.272Z,99.99
2016-12-28T02:23:06.923Z,99.99
2016-12-28T02:24:07.183Z,99.99
2016-12-28T02:25:06.836Z,99.99
2016-12-28T02:26:06.791Z,99.99
2016-12-28T02:27:07.051Z,99.99
2016-12-28T02:28:06.705Z,99.99
2016-12-28T02:29:06.963Z,99.99
2016-12-28T02:30:06.920Z,99.99
2016-12-28T02:31:06.592Z,99.99
2016-12-28T02:32:06.829Z,99.99
2016-12-28T02:33:06.786Z,99.99
2016-12-28T02:34:06.743Z,99.99
2016-12-28T02:35:06.697Z,99.99
2016-12-28T02:36:06.656Z,99.99
2016-12-28T02:37:06.606Z,99.99
2016-12-28T02:38:06.570Z,99.99
2016-12-28T02:39:06.217Z,99.99
2016-12-28T02:40:06.477Z,99.99
2016-12-28T02:41:06.129Z,99.99
2016-12-28T02:42:06.390Z,99.99
2016-12-28T02:43:06.045Z,99.99
2016-12-28T02:44:06.299Z,99.99
2016-12-28T02:45:06.255Z,99.99
2016-12-28T02:46:05.911Z,99.99
2016-12-28T02:47:06.165Z,99.99
2016-12-28T02:48:06.121Z,99.99
2016-12-28T02:49:06.079Z,99.99
2016-12-28T02:50:06.039Z,99.99
2016-12-28T02:51:05.687Z,99.99
2016-12-28T02:52:05.949Z,99.99
2016-12-28T02:53:05.599Z,99.99
2016-12-28T02:54:05.858Z,99.99
2016-12-28T02:55:05.815Z,99.99
2016-12-28T02:56:05.766Z,99.99
2016-12-28T02:57:05.724Z,99.99
2016-12-28T02:58:05.679Z,99.99
2016-12-28T02:59:05.634Z,99.99
2016-12-28T03:00:05.594Z,99.99
2016-12-28T03:01:05.547Z,99.99
2016-12-28T03:02:05.504Z,99.99
2016-12-28T03:03:05.458Z,99.99
2016-12-28T03:04:05.420Z,99.99
2016-12-28T03:05:05.371Z,99.99
2016-12-28T03:06:05.326Z,99.99
2016-12-28T03:07:05.286Z,99.99
2016-12-28T03:08:05.237Z,99.99
2016-12-28T03:09:05.196Z,99.99
2016-12-28T03:10:05.146Z,99.99
2016-12-28T03:11:05.105Z,99.99
2016-12-28T03:12:05.063Z,99.99
2016-12-28T03:13:04.715Z,99.99
2016-12-28T03:14:04.973Z,99.99
2016-12-28T03:15:04.926Z,99.99
2016-12-28T03:16:04.887Z,99.99
2016-12-28T03:17:04.539Z,99.99
2016-12-28T03:18:04.799Z,99.99
2016-12-28T03:19:04.753Z,99.99
2016-12-28T03:20:04.250Z,99.99
2016-12-28T03:21:04.206Z,99.99
2016-12-28T03:22:04.162Z,99.99
2016-12-28T03:23:04.118Z,99.99
2016-12-28T03:24:04.080Z,99.99
2016-12-28T03:25:04.032Z,99.99
2016-12-28T03:26:03.985Z,99.99
2016-12-28T03:27:03.942Z,99.99
2016-12-28T03:28:03.896Z,99.99
2016-12-28T03:29:03.855Z,99.99
2016-12-28T03:31:03.764Z,99.99
2016-12-28T03:32:03.722Z,99.99
2016-12-28T03:33:03.676Z,99.99
2016-12-28T03:34:03.637Z,99.99
2016-12-28T03:35:03.587Z,99.99
2016-12-28T03:36:03.543Z,99.99
2016-12-28T03:37:03.500Z,99.99
2016-12-28T03:38:03.456Z,99.99
2016-12-28T03:39:03.410Z,99.99
2016-12-28T03:40:03.366Z,99.99
2016-12-28T03:41:03.323Z,99.99
2016-12-28T03:42:03.278Z,99.99
2016-12-28T03:43:03.233Z,99.99
2016-12-28T03:44:03.190Z,99.99
2016-12-28T03:45:03.144Z,99.99
2016-12-28T03:46:03.099Z,99.99
2016-12-28T03:47:03.058Z,99.99
2016-12-28T03:48:03.013Z,99.99
2016-12-28T03:49:02.972Z,99.99
2016-12-28T03:50:02.926Z,99.99
2016-12-28T03:51:02.880Z,99.99
2016-12-28T03:52:02.835Z,99.99
2016-12-28T03:53:02.792Z,99.99
2016-12-28T03:54:02.747Z,99.99
2016-12-28T03:55:02.705Z,99.99
2016-12-28T03:56:02.658Z,99.99
2016-12-28T03:57:02.614Z,99.99
2016-12-28T03:58:02.571Z,99.99
2016-12-28T03:59:02.526Z,99.99
2016-12-28T04:00:02.483Z,99.99
2016-12-28T04:01:02.439Z,99.99
2016-12-28T04:02:02.392Z,99.99
2016-12-28T04:03:02.351Z,99.99
2016-12-28T04:04:02.305Z,99.99
2016-12-28T04:05:02.261Z,99.99
2016-12-28T04:06:02.216Z,99.99
2016-12-28T04:07:02.173Z,99.99
2016-12-28T04:08:02.128Z,99.99
2016-12-28T04:09:02.084Z,99.99
2016-12-28T04:10:02.040Z,99.99
2016-12-28T04:11:01.996Z,99.99
2016-12-28T04:12:01.953Z,99.99
2016-12-28T04:13:01.907Z,99.99
2016-12-28T04:14:01.863Z,99.99
2016-12-28T04:15:01.817Z,99.99
2016-12-28T04:16:01.773Z,99.99
2016-12-28T04:17:01.729Z,99.99
2016-12-28T04:18:01.685Z,99.99
2016-12-28T04:19:01.644Z,99.99
2016-12-28T04:20:01.596Z,99.99
2016-12-28T04:21:01.553Z,99.99
2016-12-28T04:22:01.508Z,99.99
2016-12-28T04:23:01.464Z,99.99
2016-12-28T04:24:01.420Z,99.99
2016-12-28T04:25:01.374Z,99.99
2016-12-28T04:26:01.331Z,99.99
2016-12-28T04:27:01.286Z,99.99
2016-12-28T04:28:01.243Z,99.99
2016-12-28T04:29:01.207Z,99.99
2016-12-28T04:30:01.156Z,99.99
2016-12-28T04:31:01.109Z,99.99
2016-12-28T04:32:01.070Z,99.99
2016-12-28T04:33:01.020Z,99.99
2016-12-28T04:34:00.976Z,99.99
2016-12-28T04:35:00.933Z,99.99
2016-12-28T04:36:00.887Z,99.99
2016-12-28T04:37:00.843Z,99.99
2016-12-28T04:38:00.801Z,99.99
2016-12-28T04:39:00.757Z,99.99
2016-12-28T04:40:00.712Z,99.99
2016-12-28T04:41:00.666Z,99.99
2016-12-28T04:42:00.622Z,99.99
2016-12-28T04:43:00.577Z,99.99
2016-12-28T04:44:00.534Z,99.99
2016-12-28T04:45:00.488Z,99.99
2016-12-28T04:46:00.444Z,99.99
2016-12-28T04:47:00.401Z,99.99
2016-12-28T04:48:00.356Z,99.99
2016-12-28T04:49:00.312Z,99.99
2016-12-28T04:50:00.268Z,99.99
2016-12-28T04:51:00.224Z,99.99
2016-12-28T04:52:00.178Z,99.99
2016-12-28T04:53:00.134Z,99.99
2016-12-28T04:54:00.090Z,99.99
2016-12-28T04:55:00.046Z,99.99
2016-12-28T04:56:00.001Z,99.99
2016-12-28T04:56:59.958Z,99.99
2016-12-28T04:57:59.913Z,99.99
2016-12-28T04:58:59.869Z,99.99
2016-12-28T04:59:59.825Z,99.99
2016-12-28T05:00:59.782Z,99.99
2016-12-28T05:01:59.735Z,99.99
2016-12-28T05:02:59.693Z,99.99
2016-12-28T05:03:59.650Z,99.99
2016-12-28T05:04:59.605Z,99.99
2016-12-28T05:05:59.561Z,99.99
2016-12-28T05:06:59.517Z,99.99
2016-12-28T05:07:59.470Z,99.99
2016-12-28T05:08:59.428Z,99.99
2016-12-28T05:09:59.382Z,99.99
2016-12-28T05:10:59.339Z,99.99
2016-12-28T05:11:59.294Z,99.99
2016-12-28T05:12:59.250Z,99.99
2016-12-28T05:13:59.207Z,99.99
2016-12-28T05:14:59.162Z,99.99
2016-12-28T05:15:59.119Z,99.99
2016-12-28T05:16:59.075Z,99.99
2016-12-28T05:17:59.030Z,99.99
2016-12-28T05:18:58.987Z,99.99
2016-12-28T05:19:58.943Z,99.99
2016-12-28T05:20:58.898Z,99.99
2016-12-28T05:21:58.855Z,99.99
2016-12-28T05:22:58.809Z,99.99
2016-12-28T05:23:58.764Z,99.99
2016-12-28T05:24:58.721Z,99.99
2016-12-28T05:25:58.678Z,99.99
2016-12-28T05:26:58.632Z,99.99
2016-12-28T05:27:58.588Z,99.99
2016-12-28T05:28:58.544Z,99.99
2016-12-28T05:29:58.500Z,99.99
2016-12-28T05:30:58.458Z,99.99
2016-12-28T05:31:58.411Z,99.99
2016-12-28T05:32:58.367Z,99.99
2016-12-28T05:33:58.325Z,99.99
2016-12-28T05:34:58.279Z,99.99
2016-12-28T05:35:58.236Z,99.99
2016-12-28T05:36:58.190Z,99.99
2016-12-28T05:37:58.147Z,99.99
2016-12-28T05:38:58.101Z,99.99
2016-12-28T05:39:58.057Z,99.99
2016-12-28T05:40:58.014Z,99.99
2016-12-28T05:41:57.970Z,99.99
2016-12-28T05:42:57.926Z,99.99
2016-12-28T05:43:57.882Z,99.99
2016-12-28T05:44:57.837Z,99.99
2016-12-28T05:45:57.794Z,99.99
2016-12-28T05:46:57.748Z,99.99
2016-12-28T05:47:57.705Z,99.99
2016-12-28T05:48:57.663Z,99.99
2016-12-28T05:49:57.615Z,99.99
2016-12-28T05:50:57.572Z,99.99
2016-12-28T05:51:57.529Z,99.99
2016-12-28T05:52:57.484Z,99.99
2016-12-28T05:53:57.439Z,99.99
2016-12-28T05:54:57.398Z,99.99
2016-12-28T05:55:57.353Z,99.99
2016-12-28T05:56:57.307Z,99.99
2016-12-28T05:57:57.264Z,99.99
2016-12-28T05:58:57.220Z,99.99
2016-12-28T05:59:57.178Z,99.99
2016-12-28T06:00:57.129Z,99.99
2016-12-28T06:01:57.087Z,99.99
2016-12-28T06:02:57.067Z,99.99
2016-12-28T06:03:56.999Z,99.99
2016-12-28T06:04:56.953Z,99.99
2016-12-28T06:05:56.911Z,99.99
2016-12-28T06:06:56.867Z,99.99
2016-12-28T06:07:56.823Z,99.99
2016-12-28T06:08:56.778Z,99.99
2016-12-28T06:09:56.734Z,99.99
2016-12-28T06:10:56.691Z,99.99
2016-12-28T06:11:56.646Z,99.99
2016-12-28T06:12:56.601Z,99.99
2016-12-28T06:13:56.560Z,99.99
2016-12-28T06:14:56.515Z,99.99
2016-12-28T06:15:56.470Z,99.99
2016-12-28T06:16:56.427Z,99.99
2016-12-28T06:17:56.383Z,99.99
2016-12-28T06:18:56.336Z,99.99
2016-12-28T06:19:56.297Z,99.99
2016-12-28T06:20:56.248Z,99.99
2016-12-28T06:21:56.205Z,99.99
2016-12-28T06:22:56.161Z,99.99
2016-12-28T06:23:56.115Z,99.99
2016-12-28T06:24:56.073Z,99.99
2016-12-28T06:25:56.029Z,99.99
2016-12-28T06:26:55.984Z,99.99
2016-12-28T06:27:55.941Z,99.99
2016-12-28T06:28:55.896Z,99.99
2016-12-28T06:29:55.851Z,99.99
2016-12-28T06:30:55.826Z,99.99
2016-12-28T06:31:55.764Z,99.99
2016-12-28T06:32:55.723Z,99.99
2016-12-28T06:33:55.673Z,99.99
2016-12-28T06:34:55.629Z,99.99
2016-12-28T06:35:55.586Z,99.99
2016-12-28T06:36:55.543Z,99.99
2016-12-28T06:37:55.498Z,99.99
2016-12-28T06:38:55.454Z,99.99
2016-12-28T06:39:55.410Z,99.99
2016-12-28T06:40:55.365Z,99.99
2016-12-28T06:41:55.321Z,99.99
2016-12-28T06:42:55.276Z,99.99
2016-12-28T06:43:55.230Z,99.99
2016-12-28T06:44:55.186Z,99.99
2016-12-28T06:45:55.145Z,99.99
2016-12-28T06:46:55.097Z,99.99
2016-12-28T06:47:55.054Z,99.99
2016-12-28T06:48:55.009Z,99.99
2016-12-28T06:49:54.965Z,99.99
2016-12-28T06:50:54.919Z,99.99
2016-12-28T06:51:54.875Z,99.99
2016-12-28T06:52:54.829Z,99.99
2016-12-28T06:53:54.786Z,99.99
2016-12-28T06:54:54.743Z,99.99
2016-12-28T06:55:54.696Z,99.99
2016-12-28T06:56:54.653Z,99.99
2016-12-28T06:57:54.608Z,99.99
2016-12-28T06:58:54.565Z,99.99
2016-12-28T06:59:54.519Z,99.99
2016-12-28T07:00:54.475Z,99.99
2016-12-28T07:01:54.433Z,99.99
2016-12-28T07:02:54.386Z,99.99
2016-12-28T07:03:54.343Z,99.99
2016-12-28T07:04:54.298Z,99.99
2016-12-28T07:05:54.254Z,99.99
2016-12-28T07:06:54.208Z,99.99
2016-12-28T07:07:54.164Z,99.99
2016-12-28T07:08:54.127Z,99.99
2016-12-28T07:09:54.075Z,99.99
2016-12-28T07:10:54.030Z,99.99
2016-12-28T07:11:53.989Z,99.99
2016-12-28T07:12:53.941Z,99.99
2016-12-28T07:13:53.896Z,99.99
2016-12-28T07:14:53.851Z,99.99
2016-12-28T07:15:53.806Z,99.99
2016-12-28T07:16:53.765Z,99.99
2016-12-28T07:17:53.718Z,99.99
2016-12-28T07:18:53.674Z,99.99
2016-12-28T07:19:54.086Z,99.99
2016-12-28T07:20:53.747Z,99.99
2016-12-28T07:21:53.697Z,99.99
2016-12-28T07:22:53.950Z,99.99
2016-12-28T07:23:53.913Z,99.99
2016-12-28T07:24:53.865Z,99.99
2016-12-28T07:25:53.822Z,99.99
2016-12-28T07:26:53.776Z,99.99
2016-12-28T07:27:53.732Z,99.99
2016-12-28T07:28:53.686Z,99.99
2016-12-28T07:29:53.643Z,99.99
2016-12-28T07:30:53.596Z,99.99
2016-12-28T07:31:53.553Z,99.99
2016-12-28T07:32:53.517Z,99.99
2016-12-28T07:33:53.166Z,99.99
2016-12-28T07:34:53.424Z,99.99
2016-12-28T07:35:53.378Z,99.99
2016-12-28T07:36:53.335Z,99.99
2016-12-28T07:37:53.673Z,99.99
2016-12-28T07:38:52.944Z,99.79
2016-12-28T07:39:53.207Z,98.28
2016-12-28T07:40:53.163Z,97.91
2016-12-28T07:41:52.812Z,98
2016-12-28T07:42:53.077Z,97.53
2016-12-28T07:43:53.025Z,98.1
2016-12-28T07:44:52.989Z,98.05
2016-12-28T07:45:52.957Z,98.33
2016-12-28T07:46:52.592Z,97.48
2016-12-28T07:47:52.854Z,97.48
2016-12-28T07:48:52.809Z,96.91
2016-12-28T07:49:52.773Z,96.25
2016-12-28T07:50:52.724Z,96.06
2016-12-28T07:51:52.689Z,95.97
2016-12-28T07:52:52.638Z,94.84
2016-12-28T07:53:52.592Z,94.89
2016-12-28T07:54:52.552Z,94.51
2016-12-28T07:55:52.507Z,93.94
2016-12-28T07:56:52.163Z,92.52
2016-12-28T07:57:52.122Z,92.43
2016-12-28T07:58:52.382Z,92.61
2016-12-28T07:59:52.334Z,93.37
2016-12-28T08:00:52.296Z,92.33
2016-12-28T08:01:52.253Z,90.44
2016-12-28T08:02:52.210Z,89.5
2016-12-28T08:03:52.170Z,89.5
2016-12-28T08:04:52.122Z,89.5
2016-12-28T08:05:52.080Z,88.93
2016-12-28T08:06:52.038Z,88.5
2016-12-28T08:07:51.997Z,88.41
2016-12-28T08:08:51.953Z,88.31
2016-12-28T08:09:51.912Z,87.08
2016-12-28T08:10:51.874Z,87.08
2016-12-28T08:11:51.829Z,86.42
2016-12-28T08:12:51.485Z,86.61
2016-12-28T08:13:51.440Z,86.42
2016-12-28T08:14:51.708Z,85.76
2016-12-28T08:15:51.658Z,85.95
2016-12-28T08:16:51.618Z,85.38
2016-12-28T08:17:51.581Z,85
2016-12-28T08:18:51.537Z,84.81
2016-12-28T08:19:51.496Z,84.44
2016-12-28T08:20:51.450Z,84.25
2016-12-28T08:21:51.107Z,84.01
2016-12-28T08:22:51.368Z,82.87
2016-12-28T08:23:51.324Z,82.78
2016-12-28T08:24:51.284Z,81.36
2016-12-28T08:25:50.941Z,80.36
2016-12-28T08:26:51.198Z,79.6
2016-12-28T08:27:51.157Z,78.46
2016-12-28T08:28:50.813Z,78.22
2016-12-28T08:29:50.778Z,77.75
2016-12-28T08:30:50.735Z,76.42
2016-12-28T08:31:50.693Z,75.19
2016-12-28T08:32:50.648Z,74.81
2016-12-28T08:33:50.911Z,75
2016-12-28T08:34:50.867Z,74.33
2016-12-28T08:35:50.830Z,74.05
2016-12-28T08:36:50.484Z,73.14
2016-12-28T08:37:50.750Z,72.48
2016-12-28T08:38:50.708Z,71.25
2016-12-28T08:39:50.668Z,69.86
2016-12-28T08:40:50.627Z,69.2
2016-12-28T08:41:50.588Z,68.44
2016-12-28T08:42:50.546Z,68.54
2016-12-28T08:43:50.214Z,68.06
2016-12-28T08:44:50.468Z,68.06
2016-12-28T08:45:50.126Z,68.06
2016-12-28T08:46:50.390Z,68.63
2016-12-28T08:47:50.352Z,69.67
2016-12-28T08:48:50.308Z,70.3
2016-12-28T08:49:50.267Z,70.11
2016-12-28T08:50:50.230Z,69.35
2016-12-28T08:51:50.204Z,68.98
2016-12-28T08:52:50.149Z,68.06
2016-12-28T08:53:50.112Z,67.77
2016-12-28T08:54:49.771Z,68.44
2016-12-28T08:55:50.034Z,67.62
2016-12-28T08:56:49.695Z,66.2
2016-12-28T08:57:49.957Z,65.53
2016-12-28T08:58:49.919Z,64.9
2016-12-28T08:59:49.876Z,63.48
2016-12-28T09:00:49.837Z,62.62
2016-12-28T09:01:49.800Z,62.24
2016-12-28T09:02:49.762Z,61.71
2016-12-28T09:03:49.724Z,60.95
2016-12-28T09:04:49.686Z,61.8
2016-12-28T09:05:49.657Z,60.57
2016-12-28T09:06:49.613Z,59.71
2016-12-28T09:07:49.574Z,59.84
2016-12-28T09:08:49.535Z,58.7
2016-12-28T09:09:49.500Z,57.65
2016-12-28T09:10:49.462Z,57.56
2016-12-28T09:11:49.431Z,56.8
2016-12-28T09:12:49.085Z,55.59
2016-12-28T09:13:49.356Z,54.83
2016-12-28T09:14:49.312Z,53.91
2016-12-28T09:15:49.277Z,52.1
2016-12-28T09:16:48.937Z,50.89
2016-12-28T09:17:48.902Z,50.99
2016-12-28T09:18:49.172Z,51.84
2016-12-28T09:19:49.133Z,51.46
2016-12-28T09:20:48.796Z,51.46
2016-12-28T09:21:49.064Z,51.84
2016-12-28T09:22:48.724Z,51.18
2016-12-28T09:23:48.995Z,50.35
2016-12-28T09:24:48.959Z,49.77
2016-12-28T09:25:48.620Z,49.87
2016-12-28T09:26:48.889Z,51.1
2016-12-28T09:27:48.851Z,51.46
2016-12-28T09:28:48.819Z,51.75
2016-12-28T09:29:48.784Z,50.6
2016-12-28T09:30:48.754Z,51.01
2016-12-28T09:31:48.718Z,50.63
2016-12-28T09:32:48.686Z,50.15
2016-12-28T09:33:48.650Z,49.23
2016-12-28T09:34:48.317Z,49.13
2016-12-28T09:35:48.582Z,48.37
2016-12-28T09:36:48.553Z,47.89
2016-12-28T09:37:48.213Z,48.02
2016-12-28T09:38:48.182Z,46.3
2016-12-28T09:39:48.450Z,45.75
2016-12-28T09:40:48.415Z,44.8
2016-12-28T09:41:48.388Z,43.39
2016-12-28T09:42:48.357Z,42.91
2016-12-28T09:43:48.317Z,42.91
2016-12-28T09:44:47.984Z,42.05
2016-12-28T09:45:48.254Z,41.58
2016-12-28T09:46:47.921Z,41.39
2016-12-28T09:47:47.886Z,41.1
2016-12-28T09:48:48.158Z,41.29
2016-12-28T09:49:48.127Z,41.86
2016-12-28T09:50:48.097Z,41.96
2016-12-28T09:51:47.762Z,41.39
2016-12-28T09:52:48.032Z,41.2
2016-12-28T09:53:47.698Z,41.1
2016-12-28T09:54:47.967Z,41.31
2016-12-28T09:55:47.942Z,40.55
2016-12-28T09:56:47.905Z,40.45
2016-12-28T09:57:47.873Z,39.98
2016-12-28T09:58:47.845Z,39.88
2016-12-28T09:59:47.814Z,40.44
2016-12-28T10:00:47.788Z,40.34
2016-12-28T10:01:47.753Z,40.15
2016-12-28T10:02:47.718Z,40.45
2016-12-28T10:03:47.701Z,39.31
2016-12-28T10:04:47.662Z,38.76
2016-12-28T10:05:47.634Z,38.18
2016-12-28T10:06:47.600Z,38.56
2016-12-28T10:07:47.568Z,38.18
2016-12-28T10:08:47.536Z,38.56
2016-12-28T10:09:47.508Z,38.18
2016-12-28T10:10:47.478Z,38.66
2016-12-28T10:11:47.144Z,38.18
2016-12-28T10:12:47.417Z,37.99
2016-12-28T10:13:47.385Z,37.9
2016-12-28T10:14:47.358Z,37.32
2016-12-28T10:15:47.024Z,37.61
2016-12-28T10:16:47.296Z,37.51
2016-12-28T10:17:47.264Z,37.61
2016-12-28T10:18:47.234Z,38.09
2016-12-28T10:19:47.206Z,37.99
2016-12-28T10:20:46.873Z,37.99
2016-12-28T10:21:47.144Z,37.8
2016-12-28T10:22:47.115Z,38.28
2016-12-28T10:23:46.782Z,39.61
2016-12-28T10:24:46.754Z,40.55
2016-12-28T10:25:47.019Z,40.53
2016-12-28T10:26:46.993Z,40.91
2016-12-28T10:27:46.964Z,41.29
2016-12-28T10:28:46.931Z,41.67
2016-12-28T10:29:46.905Z,42.34
2016-12-28T10:30:46.871Z,42.6
2016-12-28T10:31:46.836Z,43.37
2016-12-28T10:32:46.810Z,43.37
2016-12-28T10:33:46.777Z,42.99
2016-12-28T10:34:46.747Z,42.91
2016-12-28T10:35:46.713Z,43.1
2016-12-28T10:36:46.684Z,43.01
2016-12-28T10:37:46.350Z,42.55
2016-12-28T10:38:46.326Z,42.36
2016-12-28T10:39:46.590Z,41.62
2016-12-28T10:40:46.555Z,40.76
2016-12-28T10:41:46.523Z,40.47
2016-12-28T10:42:46.493Z,40.4
2016-12-28T10:43:46.469Z,39.44
2016-12-28T10:44:46.431Z,38.78
2016-12-28T10:45:46.404Z,39.54
2016-12-28T10:46:46.371Z,39.81
2016-12-28T10:47:46.339Z,40.37
2016-12-28T10:48:46.309Z,40
2016-12-28T10:49:46.277Z,40.19
2016-12-28T10:50:46.245Z,40.28
2016-12-28T10:51:46.215Z,41.05
2016-12-28T10:52:46.185Z,40.66
2016-12-28T10:53:46.159Z,41.24
2016-12-28T10:54:46.124Z,41.33
2016-12-28T10:55:46.091Z,41.24
2016-12-28T10:56:45.756Z,40.66
2016-12-28T10:57:45.728Z,40.37
2016-12-28T10:58:45.697Z,40
2016-12-28T10:59:45.967Z,40.11
2016-12-28T11:00:45.646Z,38.78
2016-12-28T11:01:45.908Z,39.92
2016-12-28T11:02:45.873Z,40.3
2016-12-28T11:03:45.541Z,40.11
2016-12-28T11:04:45.813Z,40.3
2016-12-28T11:05:45.782Z,40.49
2016-12-28T11:06:45.749Z,39.83
2016-12-28T11:07:45.423Z,39.73
2016-12-28T11:08:45.387Z,38.78
2016-12-28T11:09:45.658Z,38.01
2016-12-28T11:10:45.628Z,38.1
2016-12-28T11:11:45.598Z,38.39
2016-12-28T11:12:45.577Z,38.96
2016-12-28T11:13:45.540Z,39.06
2016-12-28T11:14:45.511Z,40.28
2016-12-28T11:15:45.473Z,40.28
2016-12-28T11:16:45.444Z,39.81
2016-12-28T11:17:45.411Z,39.9
2016-12-28T11:18:45.383Z,41.03
2016-12-28T11:19:45.049Z,41.31
2016-12-28T11:20:45.016Z,42.17
2016-12-28T11:21:45.288Z,43.01
2016-12-28T11:22:45.256Z,43.58
2016-12-28T11:23:45.226Z,44.23
2016-12-28T11:24:45.205Z,43.75
2016-12-28T11:25:45.176Z,43.65
2016-12-28T11:26:44.826Z,44.04
2016-12-28T11:27:45.098Z,44.42
2016-12-28T11:28:45.067Z,44.8
2016-12-28T11:29:45.034Z,44.68
2016-12-28T11:30:45.000Z,45.08
2016-12-28T11:31:44.986Z,44.6
2016-12-28T11:32:44.934Z,43.84
2016-12-28T11:33:44.598Z,43.01
2016-12-28T11:34:44.567Z,43.2
2016-12-28T11:35:44.835Z,42.72
2016-12-28T11:36:44.801Z,43.46
2016-12-28T11:37:44.776Z,44.23
2016-12-28T11:38:44.738Z,44.7
2016-12-28T11:39:44.701Z,44.6
2016-12-28T11:40:44.373Z,43.65
2016-12-28T11:41:44.637Z,43.56
2016-12-28T11:42:44.601Z,44.23
2016-12-28T11:43:44.569Z,44.04
2016-12-28T11:44:44.534Z,44.51
2016-12-28T11:45:44.501Z,45.44
2016-12-28T11:46:44.466Z,45.83
2016-12-28T11:47:44.130Z,46.78
2016-12-28T11:48:44.397Z,47.23
2016-12-28T11:49:44.361Z,48.37
2016-12-28T11:50:44.327Z,48.37
2016-12-28T11:51:44.289Z,48.56
2016-12-28T11:52:44.342Z,47.89
2016-12-28T11:53:43.920Z,48.56
2016-12-28T11:54:43.880Z,49.11
2016-12-28T11:55:44.233Z,49.2
2016-12-28T11:56:44.198Z,49.56
2016-12-28T11:57:43.777Z,49.2
2016-12-28T11:58:44.126Z,49.4
2016-12-28T11:59:44.087Z,49.2
2016-12-28T12:00:44.052Z,49.3
2016-12-28T12:01:44.015Z,48.66
2016-12-28T12:02:43.592Z,48.27
2016-12-28T12:03:43.941Z,47.73
2016-12-28T12:04:43.904Z,47.34
2016-12-28T12:05:43.869Z,46.49
2016-12-28T12:06:43.830Z,46.49
2016-12-28T12:07:43.794Z,46.78
2016-12-28T12:08:43.758Z,46.39
2016-12-28T12:09:43.721Z,47.06
2016-12-28T12:10:43.680Z,47.16
2016-12-28T12:11:43.645Z,47.16
2016-12-28T12:12:43.606Z,46.68
2016-12-28T12:13:43.570Z,46.78
2016-12-28T12:14:43.531Z,47.25
2016-12-28T12:15:43.493Z,47.25
2016-12-28T12:16:43.456Z,47.44
2016-12-28T12:17:43.033Z,47.82
2016-12-28T12:18:43.380Z,48.56
2016-12-28T12:19:43.343Z,49.13
2016-12-28T12:20:43.314Z,49.2
2016-12-28T12:21:43.270Z,50.06
2016-12-28T12:22:42.846Z,50.7
2016-12-28T12:23:43.193Z,52.32
2016-12-28T12:24:43.154Z,53.53
2016-12-28T12:25:43.116Z,53.53
2016-12-28T12:26:43.078Z,54.29
2016-12-28T12:27:43.044Z,55.02
2016-12-28T12:28:43.005Z,55.59
2016-12-28T12:29:42.964Z,56.16
2016-12-28T12:30:42.928Z,56.83
2016-12-28T12:31:42.528Z,57.18
2016-12-28T12:32:42.852Z,57.75
2016-12-28T12:33:42.807Z,57.65
2016-12-28T12:34:42.773Z,58.13
2016-12-28T12:35:42.734Z,58.41
2016-12-28T12:36:42.313Z,58.7
2016-12-28T12:37:42.659Z,58.8
2016-12-28T12:38:42.623Z,59.36
2016-12-28T12:39:42.581Z,59.55
2016-12-28T12:40:42.545Z,59.84
2016-12-28T12:41:42.506Z,59.93
2016-12-28T12:42:42.470Z,60.13
2016-12-28T12:43:42.428Z,60.22
2016-12-28T12:44:42.399Z,60.69
2016-12-28T12:45:41.970Z,60.31
2016-12-28T12:46:42.316Z,60.31
2016-12-28T12:47:42.275Z,61.07
2016-12-28T12:48:42.233Z,61.26
2016-12-28T12:49:42.195Z,61.17
2016-12-28T12:50:42.156Z,61.52
2016-12-28T12:51:42.124Z,61.33
2016-12-28T12:52:42.081Z,61.61
2016-12-28T12:53:42.040Z,62.08
2016-12-28T12:54:42.002Z,61.8